NO-0040 weather

Veum Airstrip
Fredrikstad, Østfold, Norway

Public forecast

Using degrees Celsius for public forecast. Weather courtesy of forecast.io.

Closest aviation weather report (METAR) to Veum Airstrip

Closest report is Moss Airport, Rygge, 8.4 nm (15.6 km) NNW. Retrieved 2020/01/22 10:20 UTC (39 minutes ago):

ENRY 221020Z 26005KT CAVOK 05/M05 Q1027 NOSIG

Closest aviation forecast (TAF) to Veum Airstrip

Closest forecast is Moss Airport, Rygge, 8.4 nm (15.6 km) NNW. Retrieved 2020/01/22 06:57 UTC (4 hours ago):

TAF ENRY 220500Z 2206/2306 VRB06KT CAVOK